Terminal Aerodrome Forecast
Issued by NWS

Home | Current Version | Previous Version | Text Only | Print | Product List | Glossary On
Versions: 1 2 3 4 5 6 7 8 9 10 11 12 13 14 15 16 17
000
FTUS43 KAPX 262337
TAFMBL
TAF
KMBL 262337Z 2700/2724 22005KT P6SM -SHRA BKN006 OVC030
     FM270300 VRB03KT P6SM SCT012 BKN090
     FM270800 05004KT P6SM SCT080
     FM271600 04008KT P6SM FEW070
     FM271800 01009KT P6SM SCT060=

USA.gov is the U.S. government's official web portal to all federal, state and local government web resources and services.